CSCL Oceania — VRBI2 — position and weather

sailwx.info

Track history (hours):
 
Tides and Currents Weather Stations Pressure Air Temp Water Temp Dewpoint Dewpoint Depression Visibility Wind Speed Wind Dir Waves Ship Positions

CSCL Oceania

Last reported at 2017-Mar-24 04:33 UTC. Time now 2017-Mar-25 05:59 UTC.
Position N 22°46' E 120°06'.

Length 334 m; beam 42.8 m; draft 14.5 m.

Type: Cargo ship. MMSI: 477020300.

Date/timePositionNaut miles runAvg speedWind from/ knotsBaromVisibWave heightAir tempDewpointWater temp
2017-Mar-24 04:33N 22°46' E 120°06'1716.7
2017-Mar-24 03:33N 22°33' E 120°17'3 0.3
2017-Mar-23 17:31N 22°33' E 120°20'4 4.1
2017-Mar-23 16:33N 22°32' E 120°15'3 2.8
2017-Mar-23 15:33N 22°31' E 120°12'3 2.7
2017-Mar-23 14:34N 22°31' E 120°10'0 0.3
2017-Mar-23 13:33N 22°31' E 120°09'1 0.5
2017-Mar-23 12:33N 22°31' E 120°09'5 4.6
2017-Mar-23 11:33N 22°29' E 120°04'1211.7
2017-Mar-23 10:33N 22°26' E 119°52'1611.8
2017-Mar-23 09:10N 22°22' E 119°35'711.8
2017-Mar-23 08:33N 22°21' E 119°27'1211.7
2017-Mar-23 07:33N 22°21' E 119°15'284 7.6
2017-Mar-21 18:17N 22°20' E 114°08'  
2017-Mar-19 05:00N 13°30' E 111°48'41818.2 120 / 151017.3 5.4 29.026.227.0
2017-Mar-18 06:00N 07°30' E 108°12'45015.3 150 / 91016.3 5.4 29.024.827.0
2017-Mar-17 00:33N 01°15' E 104°03'9 8.1
2017-Mar-16 23:28N 01°15' E 103°54'0 0.0
2017-Mar-16 22:31N 01°15' E 103°54'0 0.0
2017-Mar-16 21:25N 01°15' E 103°54'0 0.0
2017-Mar-16 20:28N 01°15' E 103°54'0 0.2
2017-Mar-16 19:31N 01°15' E 103°54'0 0.2
2017-Mar-16 18:28N 01°15' E 103°53'0 0.0
2017-Mar-16 17:28N 01°15' E 103°53'0 0.1
2017-Mar-16 16:28N 01°15' E 103°53'0 0.1
2017-Mar-16 15:31N 01°15' E 103°53'0 0.1
2017-Mar-16 14:33N 01°15' E 103°53'6 6.5
2017-Mar-16 13:34N 01°14' E 103°47'2 1.4
2017-Mar-16 12:22N 01°15' E 103°47'0 0.0
2017-Mar-16 11:31N 01°15' E 103°47'0 0.0
2017-Mar-16 10:31N 01°15' E 103°47'0 0.1
2017-Mar-16 09:28N 01°15' E 103°47'0 0.1
2017-Mar-16 08:31N 01°15' E 103°47'0 0.0
2017-Mar-16 07:31N 01°15' E 103°47'0 0.0
2017-Mar-16 06:22N 01°15' E 103°47'0 0.0
2017-Mar-16 05:28N 01°15' E 103°47'0 0.0
2017-Mar-16 04:28N 01°15' E 103°47'0 0.0
2017-Mar-16 03:25N 01°15' E 103°47'0 0.0
2017-Mar-16 02:31N 01°15' E 103°47'0 0.0
2017-Mar-16 01:28N 01°15' E 103°47'0 0.0
2017-Mar-16 00:28N 01°15' E 103°47'0 0.0
2017-Mar-15 23:28N 01°15' E 103°47'3 2.9
2017-Mar-15 22:33N 01°15' E 103°45'10 9.7
2017-Mar-15 21:33N 01°12' E 103°35'6 5.5
2017-Mar-15 20:31N 01°10' E 103°30'8 7.1
2017-Mar-15 19:26N 01°14' E 103°23'1713.9
2017-Mar-15 18:14N 01°24' E 103°09'1113.5
2017-Mar-15 17:25N 01°30' E 102°60'1213.9
2017-Mar-15 16:33N 01°36' E 102°50'1715.5
2017-Mar-15 15:26N 01°44' E 102°34'1416.4
2017-Mar-15 14:33N 01°49' E 102°21'1616.3
2017-Mar-15 13:34N 01°60' E 102°08'1717.4
2017-Mar-15 12:33N 02°11' E 101°55'1817.7
2017-Mar-15 11:33N 02°21' E 101°41'47716.1
2017-Mar-14 06:00N 06°00' E 094°36'   090 / 61016.1 5.4 30.025.828.1
Track history (hours):
 
Tides and Currents Weather Stations Pressure Air Temp Water Temp Dewpoint Dewpoint Depression Visibility Wind Speed Wind Dir Waves Ship Positions

CSCL Oceania

Last reported at 2017-Mar-24 04:33 UTC. Time now 2017-Mar-25 05:59 UTC.
Position N 22°46' E 120°06'.

Length 334 m; beam 42.8 m; draft 14.5 m.

Type: Cargo ship. MMSI: 477020300.

Date/timePositionNaut miles runAvg speedWind from/ knotsBaromVisibWave heightAir tempDewpointWater temp
2017-Mar-24 04:33N 22°46' E 120°06'1716.7
2017-Mar-24 03:33N 22°33' E 120°17'3 0.3
2017-Mar-23 17:31N 22°33' E 120°20'4 4.1
2017-Mar-23 16:33N 22°32' E 120°15'3 2.8
2017-Mar-23 15:33N 22°31' E 120°12'3 2.7
2017-Mar-23 14:34N 22°31' E 120°10'0 0.3
2017-Mar-23 13:33N 22°31' E 120°09'1 0.5
2017-Mar-23 12:33N 22°31' E 120°09'5 4.6
2017-Mar-23 11:33N 22°29' E 120°04'1211.7
2017-Mar-23 10:33N 22°26' E 119°52'1611.8
2017-Mar-23 09:10N 22°22' E 119°35'711.8
2017-Mar-23 08:33N 22°21' E 119°27'1211.7
2017-Mar-23 07:33N 22°21' E 119°15'284 7.6
2017-Mar-21 18:17N 22°20' E 114°08'  
2017-Mar-19 05:00N 13°30' E 111°48'41818.2 120 / 151017.3 5.4 29.026.227.0
2017-Mar-18 06:00N 07°30' E 108°12'45015.3 150 / 91016.3 5.4 29.024.827.0
2017-Mar-17 00:33N 01°15' E 104°03'9 8.1
2017-Mar-16 23:28N 01°15' E 103°54'0 0.0
2017-Mar-16 22:31N 01°15' E 103°54'0 0.0
2017-Mar-16 21:25N 01°15' E 103°54'0 0.0
2017-Mar-16 20:28N 01°15' E 103°54'0 0.2
2017-Mar-16 19:31N 01°15' E 103°54'0 0.2
2017-Mar-16 18:28N 01°15' E 103°53'0 0.0
2017-Mar-16 17:28N 01°15' E 103°53'0 0.1
2017-Mar-16 16:28N 01°15' E 103°53'0 0.1
2017-Mar-16 15:31N 01°15' E 103°53'0 0.1
2017-Mar-16 14:33N 01°15' E 103°53'6 6.5
2017-Mar-16 13:34N 01°14' E 103°47'2 1.4
2017-Mar-16 12:22N 01°15' E 103°47'0 0.0
2017-Mar-16 11:31N 01°15' E 103°47'0 0.0
2017-Mar-16 10:31N 01°15' E 103°47'0 0.1
2017-Mar-16 09:28N 01°15' E 103°47'0 0.1
2017-Mar-16 08:31N 01°15' E 103°47'0 0.0
2017-Mar-16 07:31N 01°15' E 103°47'0 0.0
2017-Mar-16 06:22N 01°15' E 103°47'0 0.0
2017-Mar-16 05:28N 01°15' E 103°47'0 0.0
2017-Mar-16 04:28N 01°15' E 103°47'0 0.0
2017-Mar-16 03:25N 01°15' E 103°47'0 0.0
2017-Mar-16 02:31N 01°15' E 103°47'0 0.0
2017-Mar-16 01:28N 01°15' E 103°47'0 0.0
2017-Mar-16 00:28N 01°15' E 103°47'0 0.0
2017-Mar-15 23:28N 01°15' E 103°47'3 2.9
2017-Mar-15 22:33N 01°15' E 103°45'10 9.7
2017-Mar-15 21:33N 01°12' E 103°35'6 5.5
2017-Mar-15 20:31N 01°10' E 103°30'8 7.1
2017-Mar-15 19:26N 01°14' E 103°23'1713.9
2017-Mar-15 18:14N 01°24' E 103°09'1113.5
2017-Mar-15 17:25N 01°30' E 102°60'1213.9
2017-Mar-15 16:33N 01°36' E 102°50'1715.5
2017-Mar-15 15:26N 01°44' E 102°34'1416.4
2017-Mar-15 14:33N 01°49' E 102°21'1616.3
2017-Mar-15 13:34N 01°60' E 102°08'1717.4
2017-Mar-15 12:33N 02°11' E 101°55'1817.7
2017-Mar-15 11:33N 02°21' E 101°41'47716.1
2017-Mar-14 06:00N 06°00' E 094°36'   090 / 61016.1 5.4 30.025.828.1

Dump ship's entire track history